sensor_id;sensor_type;location;lat;lon;timestamp;temperature;humidity
16273;DHT22;8244;50.044;9.006;2024-01-06T00:02:32;3.10;99.90
16273;DHT22;8244;50.044;9.006;2024-01-06T00:07:34;3.10;99.90
16273;DHT22;8244;50.044;9.006;2024-01-06T00:12:37;3.00;99.90
16273;DHT22;8244;50.044;9.006;2024-01-06T00:17:39;2.90;99.90
16273;DHT22;8244;50.044;9.006;2024-01-06T00:22:41;2.90;99.90
16273;DHT22;8244;50.044;9.006;2024-01-06T00:27:47;2.90;99.90
16273;DHT22;8244;50.044;9.006;2024-01-06T00:32:48;2.90;99.90
16273;DHT22;8244;50.044;9.006;2024-01-06T00:37:51;2.90;99.90
16273;DHT22;8244;50.044;9.006;2024-01-06T00:42:54;3.00;99.90
16273;DHT22;8244;50.044;9.006;2024-01-06T00:47:56;3.10;99.90
16273;DHT22;8244;50.044;9.006;2024-01-06T00:52:58;3.20;99.90
16273;DHT22;8244;50.044;9.006;2024-01-06T00:58:00;3.20;99.90
16273;DHT22;8244;50.044;9.006;2024-01-06T01:03:02;3.30;99.90
16273;DHT22;8244;50.044;9.006;2024-01-06T01:08:05;3.30;99.90
16273;DHT22;8244;50.044;9.006;2024-01-06T01:13:08;3.30;99.90
16273;DHT22;8244;50.044;9.006;2024-01-06T01:18:09;3.30;99.90
16273;DHT22;8244;50.044;9.006;2024-01-06T01:23:11;3.30;99.90
16273;DHT22;8244;50.044;9.006;2024-01-06T01:28:15;3.30;99.90
16273;DHT22;8244;50.044;9.006;2024-01-06T01:33:17;3.30;99.90
16273;DHT22;8244;50.044;9.006;2024-01-06T01:38:18;3.30;99.90
16273;DHT22;8244;50.044;9.006;2024-01-06T01:43:21;3.40;99.90
16273;DHT22;8244;50.044;9.006;2024-01-06T01:48:24;3.40;99.90
16273;DHT22;8244;50.044;9.006;2024-01-06T01:53:26;3.50;99.90
16273;DHT22;8244;50.044;9.006;2024-01-06T01:58:30;3.50;99.90
16273;DHT22;8244;50.044;9.006;2024-01-06T02:03:32;3.60;99.90
16273;DHT22;8244;50.044;9.006;2024-01-06T02:08:34;3.60;99.90
16273;DHT22;8244;50.044;9.006;2024-01-06T02:13:37;3.60;99.90
16273;DHT22;8244;50.044;9.006;2024-01-06T02:18:39;3.60;99.90
16273;DHT22;8244;50.044;9.006;2024-01-06T02:23:42;3.60;99.90
16273;DHT22;8244;50.044;9.006;2024-01-06T02:28:44;3.70;99.90
16273;DHT22;8244;50.044;9.006;2024-01-06T02:33:48;3.70;99.90
16273;DHT22;8244;50.044;9.006;2024-01-06T02:38:51;3.70;99.90
16273;DHT22;8244;50.044;9.006;2024-01-06T02:43:54;3.80;99.90
16273;DHT22;8244;50.044;9.006;2024-01-06T02:48:56;3.80;99.90
16273;DHT22;8244;50.044;9.006;2024-01-06T02:53:59;3.80;99.90
16273;DHT22;8244;50.044;9.006;2024-01-06T02:59:01;3.80;99.90
16273;DHT22;8244;50.044;9.006;2024-01-06T03:04:03;3.70;99.90
16273;DHT22;8244;50.044;9.006;2024-01-06T03:09:06;3.70;99.90
16273;DHT22;8244;50.044;9.006;2024-01-06T03:14:08;3.70;99.90
16273;DHT22;8244;50.044;9.006;2024-01-06T03:19:09;3.80;99.90
16273;DHT22;8244;50.044;9.006;2024-01-06T03:24:12;3.80;99.90
16273;DHT22;8244;50.044;9.006;2024-01-06T03:29:14;3.80;99.90
16273;DHT22;8244;50.044;9.006;2024-01-06T03:34:16;3.90;99.90
16273;DHT22;8244;50.044;9.006;2024-01-06T03:39:19;3.90;99.90
16273;DHT22;8244;50.044;9.006;2024-01-06T03:44:20;4.00;99.90
16273;DHT22;8244;50.044;9.006;2024-01-06T03:49:23;4.00;99.90
16273;DHT22;8244;50.044;9.006;2024-01-06T03:54:26;4.00;99.90
16273;DHT22;8244;50.044;9.006;2024-01-06T03:59:28;4.10;99.90
16273;DHT22;8244;50.044;9.006;2024-01-06T04:04:29;4.20;99.90
16273;DHT22;8244;50.044;9.006;2024-01-06T04:09:32;4.20;99.90
16273;DHT22;8244;50.044;9.006;2024-01-06T04:14:34;4.20;99.90
16273;DHT22;8244;50.044;9.006;2024-01-06T04:19:35;4.30;99.90
16273;DHT22;8244;50.044;9.006;2024-01-06T04:24:38;4.40;99.90
16273;DHT22;8244;50.044;9.006;2024-01-06T04:29:41;4.40;99.90
16273;DHT22;8244;50.044;9.006;2024-01-06T04:34:43;4.40;99.90
16273;DHT22;8244;50.044;9.006;2024-01-06T04:39:45;4.40;99.90
16273;DHT22;8244;50.044;9.006;2024-01-06T04:44:47;4.40;99.90
16273;DHT22;8244;50.044;9.006;2024-01-06T04:49:49;4.40;99.90
16273;DHT22;8244;50.044;9.006;2024-01-06T04:54:52;4.40;99.90
16273;DHT22;8244;50.044;9.006;2024-01-06T04:59:53;4.40;99.90
16273;DHT22;8244;50.044;9.006;2024-01-06T05:04:55;4.50;99.90
16273;DHT22;8244;50.044;9.006;2024-01-06T05:09:58;4.50;99.90
16273;DHT22;8244;50.044;9.006;2024-01-06T05:15:00;4.50;99.90
16273;DHT22;8244;50.044;9.006;2024-01-06T05:20:01;4.60;99.90
16273;DHT22;8244;50.044;9.006;2024-01-06T05:25:06;4.60;99.90
16273;DHT22;8244;50.044;9.006;2024-01-06T05:30:08;4.60;99.90
16273;DHT22;8244;50.044;9.006;2024-01-06T05:35:10;4.60;99.90
16273;DHT22;8244;50.044;9.006;2024-01-06T05:40:13;4.60;99.90
16273;DHT22;8244;50.044;9.006;2024-01-06T05:45:15;4.70;99.90
16273;DHT22;8244;50.044;9.006;2024-01-06T05:50:17;4.70;99.90
16273;DHT22;8244;50.044;9.006;2024-01-06T05:55:21;4.70;99.90
16273;DHT22;8244;50.044;9.006;2024-01-06T06:00:23;4.70;99.90
16273;DHT22;8244;50.044;9.006;2024-01-06T06:05:24;4.70;99.90
16273;DHT22;8244;50.044;9.006;2024-01-06T06:10:28;4.70;99.90
16273;DHT22;8244;50.044;9.006;2024-01-06T06:15:41;4.70;99.90
16273;DHT22;8244;50.044;9.006;2024-01-06T06:20:42;4.80;99.90
16273;DHT22;8244;50.044;9.006;2024-01-06T06:25:45;4.80;99.90
16273;DHT22;8244;50.044;9.006;2024-01-06T06:30:47;4.80;99.90
16273;DHT22;8244;50.044;9.006;2024-01-06T06:35:48;4.80;99.90
16273;DHT22;8244;50.044;9.006;2024-01-06T06:40:51;4.80;99.90
16273;DHT22;8244;50.044;9.006;2024-01-06T06:45:53;4.80;99.90
16273;DHT22;8244;50.044;9.006;2024-01-06T06:50:55;4.80;99.90
16273;DHT22;8244;50.044;9.006;2024-01-06T06:55:58;4.80;99.90
16273;DHT22;8244;50.044;9.006;2024-01-06T07:01:00;4.80;99.90
16273;DHT22;8244;50.044;9.006;2024-01-06T07:06:02;4.80;99.90
16273;DHT22;8244;50.044;9.006;2024-01-06T07:11:05;4.80;99.90
16273;DHT22;8244;50.044;9.006;2024-01-06T07:16:07;4.80;99.90
16273;DHT22;8244;50.044;9.006;2024-01-06T07:21:08;4.80;99.90
16273;DHT22;8244;50.044;9.006;2024-01-06T07:26:11;4.90;99.90
16273;DHT22;8244;50.044;9.006;2024-01-06T07:31:14;4.90;99.90
16273;DHT22;8244;50.044;9.006;2024-01-06T07:36:17;4.90;99.90
16273;DHT22;8244;50.044;9.006;2024-01-06T07:41:21;4.90;99.90
16273;DHT22;8244;50.044;9.006;2024-01-06T07:46:23;5.00;99.90
16273;DHT22;8244;50.044;9.006;2024-01-06T07:51:24;5.00;99.90
16273;DHT22;8244;50.044;9.006;2024-01-06T07:56:27;5.00;99.90
16273;DHT22;8244;50.044;9.006;2024-01-06T08:01:29;5.10;99.90
16273;DHT22;8244;50.044;9.006;2024-01-06T08:06:31;5.10;99.90
16273;DHT22;8244;50.044;9.006;2024-01-06T08:11:34;5.20;99.90
16273;DHT22;8244;50.044;9.006;2024-01-06T08:16:36;5.20;99.90
16273;DHT22;8244;50.044;9.006;2024-01-06T08:21:37;5.20;99.90
16273;DHT22;8244;50.044;9.006;2024-01-06T08:26:40;5.30;99.90
16273;DHT22;8244;50.044;9.006;2024-01-06T08:31:42;5.30;99.90
16273;DHT22;8244;50.044;9.006;2024-01-06T08:36:44;5.40;99.90
16273;DHT22;8244;50.044;9.006;2024-01-06T08:41:47;5.50;99.90
16273;DHT22;8244;50.044;9.006;2024-01-06T08:46:49;5.50;99.90
16273;DHT22;8244;50.044;9.006;2024-01-06T08:51:51;5.50;99.90
16273;DHT22;8244;50.044;9.006;2024-01-06T08:56:54;5.60;99.90
16273;DHT22;8244;50.044;9.006;2024-01-06T09:01:57;5.60;99.90
16273;DHT22;8244;50.044;9.006;2024-01-06T09:06:59;5.70;99.90
16273;DHT22;8244;50.044;9.006;2024-01-06T09:12:02;5.70;99.90
16273;DHT22;8244;50.044;9.006;2024-01-06T09:17:04;5.70;99.90
16273;DHT22;8244;50.044;9.006;2024-01-06T09:22:05;5.80;99.90
16273;DHT22;8244;50.044;9.006;2024-01-06T09:27:08;5.80;99.90
16273;DHT22;8244;50.044;9.006;2024-01-06T09:32:10;5.90;99.90
16273;DHT22;8244;50.044;9.006;2024-01-06T09:37:13;6.00;99.90
16273;DHT22;8244;50.044;9.006;2024-01-06T09:42:16;6.10;99.90
16273;DHT22;8244;50.044;9.006;2024-01-06T09:47:18;6.10;99.90
16273;DHT22;8244;50.044;9.006;2024-01-06T09:52:22;6.20;99.90
16273;DHT22;8244;50.044;9.006;2024-01-06T09:57:26;6.30;99.90
16273;DHT22;8244;50.044;9.006;2024-01-06T10:02:28;6.40;99.90
16273;DHT22;8244;50.044;9.006;2024-01-06T10:07:32;6.50;99.90
16273;DHT22;8244;50.044;9.006;2024-01-06T10:12:37;6.50;99.90
16273;DHT22;8244;50.044;9.006;2024-01-06T10:17:39;6.50;99.90
16273;DHT22;8244;50.044;9.006;2024-01-06T10:22:42;6.60;99.90
16273;DHT22;8244;50.044;9.006;2024-01-06T10:27:46;6.60;99.90
16273;DHT22;8244;50.044;9.006;2024-01-06T10:32:48;6.70;99.90
16273;DHT22;8244;50.044;9.006;2024-01-06T10:37:52;6.80;99.90
16273;DHT22;8244;50.044;9.006;2024-01-06T10:42:55;6.90;99.90
16273;DHT22;8244;50.044;9.006;2024-01-06T10:47:59;7.00;99.90
16273;DHT22;8244;50.044;9.006;2024-01-06T10:53:01;7.00;99.90
16273;DHT22;8244;50.044;9.006;2024-01-06T10:58:06;7.00;99.90
16273;DHT22;8244;50.044;9.006;2024-01-06T11:03:09;7.10;99.90
16273;DHT22;8244;50.044;9.006;2024-01-06T11:08:11;7.20;99.90
16273;DHT22;8244;50.044;9.006;2024-01-06T11:13:16;7.30;99.90
16273;DHT22;8244;50.044;9.006;2024-01-06T11:18:32;7.40;99.90
16273;DHT22;8244;50.044;9.006;2024-01-06T11:23:35;7.50;99.90
16273;DHT22;8244;50.044;9.006;2024-01-06T11:28:44;7.60;99.90
16273;DHT22;8244;50.044;9.006;2024-01-06T11:33:51;7.70;99.90
16273;DHT22;8244;50.044;9.006;2024-01-06T11:38:53;7.70;99.90
16273;DHT22;8244;50.044;9.006;2024-01-06T11:43:56;7.80;99.90
16273;DHT22;8244;50.044;9.006;2024-01-06T11:48:58;8.00;99.90
16273;DHT22;8244;50.044;9.006;2024-01-06T11:54:01;8.10;99.90
16273;DHT22;8244;50.044;9.006;2024-01-06T11:59:05;8.20;99.90
16273;DHT22;8244;50.044;9.006;2024-01-06T12:04:07;8.30;99.90
16273;DHT22;8244;50.044;9.006;2024-01-06T12:09:11;8.40;99.90
16273;DHT22;8244;50.044;9.006;2024-01-06T12:14:16;8.40;99.90
16273;DHT22;8244;50.044;9.006;2024-01-06T12:19:17;8.50;99.90
16273;DHT22;8244;50.044;9.006;2024-01-06T12:24:20;8.60;99.90
16273;DHT22;8244;50.044;9.006;2024-01-06T12:29:26;8.70;99.90
16273;DHT22;8244;50.044;9.006;2024-01-06T12:34:28;8.70;99.90
16273;DHT22;8244;50.044;9.006;2024-01-06T12:39:30;8.60;99.90
16273;DHT22;8244;50.044;9.006;2024-01-06T12:44:34;8.50;99.90
16273;DHT22;8244;50.044;9.006;2024-01-06T12:49:37;8.50;99.90
16273;DHT22;8244;50.044;9.006;2024-01-06T12:54:39;8.60;99.90
16273;DHT22;8244;50.044;9.006;2024-01-06T12:59:42;8.70;99.90
16273;DHT22;8244;50.044;9.006;2024-01-06T13:04:44;8.70;99.90
16273;DHT22;8244;50.044;9.006;2024-01-06T13:09:46;8.80;99.90
16273;DHT22;8244;50.044;9.006;2024-01-06T13:14:49;8.90;99.90
16273;DHT22;8244;50.044;9.006;2024-01-06T13:19:51;9.00;99.90
16273;DHT22;8244;50.044;9.006;2024-01-06T13:24:52;9.00;99.90
16273;DHT22;8244;50.044;9.006;2024-01-06T13:29:55;9.00;99.90
16273;DHT22;8244;50.044;9.006;2024-01-06T13:34:57;9.00;99.90
16273;DHT22;8244;50.044;9.006;2024-01-06T13:40:06;9.00;99.90
16273;DHT22;8244;50.044;9.006;2024-01-06T13:45:10;8.90;99.90
16273;DHT22;8244;50.044;9.006;2024-01-06T13:50:12;8.90;99.90
16273;DHT22;8244;50.044;9.006;2024-01-06T13:55:14;8.80;99.90
16273;DHT22;8244;50.044;9.006;2024-01-06T14:00:18;8.80;99.90
16273;DHT22;8244;50.044;9.006;2024-01-06T14:05:20;8.80;99.90
16273;DHT22;8244;50.044;9.006;2024-01-06T14:10:22;8.80;99.90
16273;DHT22;8244;50.044;9.006;2024-01-06T14:15:25;8.70;99.90
16273;DHT22;8244;50.044;9.006;2024-01-06T14:20:27;8.70;99.90
16273;DHT22;8244;50.044;9.006;2024-01-06T14:25:29;8.70;99.90
16273;DHT22;8244;50.044;9.006;2024-01-06T14:30:32;8.70;99.90
16273;DHT22;8244;50.044;9.006;2024-01-06T14:35:33;8.80;99.90
16273;DHT22;8244;50.044;9.006;2024-01-06T14:40:35;8.80;99.90
16273;DHT22;8244;50.044;9.006;2024-01-06T14:45:38;8.80;99.90
16273;DHT22;8244;50.044;9.006;2024-01-06T14:50:40;8.70;99.90
16273;DHT22;8244;50.044;9.006;2024-01-06T14:55:42;8.70;99.90
16273;DHT22;8244;50.044;9.006;2024-01-06T15:00:45;8.60;99.90
16273;DHT22;8244;50.044;9.006;2024-01-06T15:05:47;8.50;99.90
16273;DHT22;8244;50.044;9.006;2024-01-06T15:10:48;8.40;99.90
16273;DHT22;8244;50.044;9.006;2024-01-06T15:15:51;8.30;99.90
16273;DHT22;8244;50.044;9.006;2024-01-06T15:20:54;8.20;99.90
16273;DHT22;8244;50.044;9.006;2024-01-06T15:25:55;8.10;99.90
16273;DHT22;8244;50.044;9.006;2024-01-06T15:30:58;8.10;99.90
16273;DHT22;8244;50.044;9.006;2024-01-06T15:36:00;8.00;99.90
16273;DHT22;8244;50.044;9.006;2024-01-06T15:41:02;8.00;99.90
16273;DHT22;8244;50.044;9.006;2024-01-06T15:46:06;7.90;99.90
16273;DHT22;8244;50.044;9.006;2024-01-06T15:51:07;7.80;99.90
16273;DHT22;8244;50.044;9.006;2024-01-06T15:56:09;7.80;99.90
16273;DHT22;8244;50.044;9.006;2024-01-06T16:01:12;7.70;99.90
16273;DHT22;8244;50.044;9.006;2024-01-06T16:06:14;7.70;99.90
16273;DHT22;8244;50.044;9.006;2024-01-06T16:11:15;7.70;99.90
16273;DHT22;8244;50.044;9.006;2024-01-06T16:16:19;7.70;99.90
16273;DHT22;8244;50.044;9.006;2024-01-06T16:21:22;7.70;99.90
16273;DHT22;8244;50.044;9.006;2024-01-06T16:26:25;7.60;99.90
16273;DHT22;8244;50.044;9.006;2024-01-06T16:31:28;7.60;99.90
16273;DHT22;8244;50.044;9.006;2024-01-06T16:36:30;7.50;99.90
16273;DHT22;8244;50.044;9.006;2024-01-06T16:41:32;7.50;99.90
16273;DHT22;8244;50.044;9.006;2024-01-06T16:46:35;7.40;99.90
16273;DHT22;8244;50.044;9.006;2024-01-06T16:51:37;7.20;99.90
16273;DHT22;8244;50.044;9.006;2024-01-06T16:56:38;7.10;99.90
16273;DHT22;8244;50.044;9.006;2024-01-06T17:01:42;7.00;99.90
16273;DHT22;8244;50.044;9.006;2024-01-06T17:06:44;7.00;99.90
16273;DHT22;8244;50.044;9.006;2024-01-06T17:11:46;6.90;99.90
16273;DHT22;8244;50.044;9.006;2024-01-06T17:16:49;6.90;99.90
16273;DHT22;8244;50.044;9.006;2024-01-06T17:21:51;6.90;99.90
16273;DHT22;8244;50.044;9.006;2024-01-06T17:26:52;6.90;99.90
16273;DHT22;8244;50.044;9.006;2024-01-06T17:31:55;6.80;99.90
16273;DHT22;8244;50.044;9.006;2024-01-06T17:36:57;6.70;99.90
16273;DHT22;8244;50.044;9.006;2024-01-06T17:42:00;6.70;99.90
16273;DHT22;8244;50.044;9.006;2024-01-06T17:47:03;6.70;99.90
16273;DHT22;8244;50.044;9.006;2024-01-06T17:52:05;6.70;99.90
16273;DHT22;8244;50.044;9.006;2024-01-06T17:57:07;6.70;99.90
16273;DHT22;8244;50.044;9.006;2024-01-06T18:02:10;6.70;99.90
16273;DHT22;8244;50.044;9.006;2024-01-06T18:07:11;6.60;99.90
16273;DHT22;8244;50.044;9.006;2024-01-06T18:12:13;6.60;99.90
16273;DHT22;8244;50.044;9.006;2024-01-06T18:17:16;6.60;99.90
16273;DHT22;8244;50.044;9.006;2024-01-06T18:22:18;6.60;99.90
16273;DHT22;8244;50.044;9.006;2024-01-06T18:27:20;6.60;99.90
16273;DHT22;8244;50.044;9.006;2024-01-06T18:32:23;6.60;99.90
16273;DHT22;8244;50.044;9.006;2024-01-06T18:37:25;6.60;99.90
16273;DHT22;8244;50.044;9.006;2024-01-06T18:42:27;6.50;99.90
16273;DHT22;8244;50.044;9.006;2024-01-06T18:47:30;6.50;99.90
16273;DHT22;8244;50.044;9.006;2024-01-06T18:52:32;6.50;99.90
16273;DHT22;8244;50.044;9.006;2024-01-06T18:57:34;6.50;99.90
16273;DHT22;8244;50.044;9.006;2024-01-06T19:02:36;6.40;99.90
16273;DHT22;8244;50.044;9.006;2024-01-06T19:07:38;6.40;99.90
16273;DHT22;8244;50.044;9.006;2024-01-06T19:12:40;6.40;99.90
16273;DHT22;8244;50.044;9.006;2024-01-06T19:17:43;6.30;99.90
16273;DHT22;8244;50.044;9.006;2024-01-06T19:22:47;6.40;99.90
16273;DHT22;8244;50.044;9.006;2024-01-06T19:27:49;6.30;99.90
16273;DHT22;8244;50.044;9.006;2024-01-06T19:32:52;6.30;99.90
16273;DHT22;8244;50.044;9.006;2024-01-06T19:37:53;6.30;99.90
16273;DHT22;8244;50.044;9.006;2024-01-06T19:43:00;6.30;99.90
16273;DHT22;8244;50.044;9.006;2024-01-06T19:48:03;6.30;99.90
16273;DHT22;8244;50.044;9.006;2024-01-06T19:53:05;6.20;99.90
16273;DHT22;8244;50.044;9.006;2024-01-06T19:58:07;6.20;99.90
16273;DHT22;8244;50.044;9.006;2024-01-06T20:03:10;6.20;99.90
16273;DHT22;8244;50.044;9.006;2024-01-06T20:08:12;6.20;99.90
16273;DHT22;8244;50.044;9.006;2024-01-06T20:13:14;6.20;99.90
16273;DHT22;8244;50.044;9.006;2024-01-06T20:18:17;6.20;99.90
16273;DHT22;8244;50.044;9.006;2024-01-06T20:23:18;6.10;99.90
16273;DHT22;8244;50.044;9.006;2024-01-06T20:28:20;6.10;99.90
16273;DHT22;8244;50.044;9.006;2024-01-06T20:33:23;6.10;99.90
16273;DHT22;8244;50.044;9.006;2024-01-06T20:38:26;6.10;99.90
16273;DHT22;8244;50.044;9.006;2024-01-06T20:43:27;6.10;99.90
16273;DHT22;8244;50.044;9.006;2024-01-06T20:48:30;6.00;99.90
16273;DHT22;8244;50.044;9.006;2024-01-06T20:53:32;6.00;99.90
16273;DHT22;8244;50.044;9.006;2024-01-06T20:58:36;6.00;99.90
16273;DHT22;8244;50.044;9.006;2024-01-06T21:03:39;6.00;99.90
16273;DHT22;8244;50.044;9.006;2024-01-06T21:08:42;6.00;99.90
16273;DHT22;8244;50.044;9.006;2024-01-06T21:13:43;5.90;99.90
16273;DHT22;8244;50.044;9.006;2024-01-06T21:18:46;5.90;99.90
16273;DHT22;8244;50.044;9.006;2024-01-06T21:23:49;5.90;99.90
16273;DHT22;8244;50.044;9.006;2024-01-06T21:28:51;5.90;99.90
16273;DHT22;8244;50.044;9.006;2024-01-06T21:33:53;5.90;99.90
16273;DHT22;8244;50.044;9.006;2024-01-06T21:38:55;5.80;99.90
16273;DHT22;8244;50.044;9.006;2024-01-06T21:43:57;5.80;99.90
16273;DHT22;8244;50.044;9.006;2024-01-06T21:49:00;5.80;99.90
16273;DHT22;8244;50.044;9.006;2024-01-06T21:54:02;5.80;99.90
16273;DHT22;8244;50.044;9.006;2024-01-06T21:59:05;5.70;99.90
16273;DHT22;8244;50.044;9.006;2024-01-06T22:04:09;5.70;99.90
16273;DHT22;8244;50.044;9.006;2024-01-06T22:09:11;5.70;99.90
16273;DHT22;8244;50.044;9.006;2024-01-06T22:14:13;5.70;99.90
16273;DHT22;8244;50.044;9.006;2024-01-06T22:19:17;5.70;99.90
16273;DHT22;8244;50.044;9.006;2024-01-06T22:24:19;5.70;99.90
16273;DHT22;8244;50.044;9.006;2024-01-06T22:29:21;5.60;99.90
16273;DHT22;8244;50.044;9.006;2024-01-06T22:34:24;5.60;99.90
16273;DHT22;8244;50.044;9.006;2024-01-06T22:39:26;5.60;99.90
16273;DHT22;8244;50.044;9.006;2024-01-06T22:44:29;5.60;99.90
16273;DHT22;8244;50.044;9.006;2024-01-06T22:49:33;5.60;99.90
16273;DHT22;8244;50.044;9.006;2024-01-06T22:54:34;5.60;99.90
16273;DHT22;8244;50.044;9.006;2024-01-06T22:59:36;5.60;99.90
16273;DHT22;8244;50.044;9.006;2024-01-06T23:04:39;5.60;99.90
16273;DHT22;8244;50.044;9.006;2024-01-06T23:09:41;5.60;99.90
16273;DHT22;8244;50.044;9.006;2024-01-06T23:14:42;5.60;99.90
16273;DHT22;8244;50.044;9.006;2024-01-06T23:19:45;5.60;99.90
16273;DHT22;8244;50.044;9.006;2024-01-06T23:24:47;5.60;99.90
16273;DHT22;8244;50.044;9.006;2024-01-06T23:29:49;5.60;99.90
16273;DHT22;8244;50.044;9.006;2024-01-06T23:34:52;5.60;99.90
16273;DHT22;8244;50.044;9.006;2024-01-06T23:39:54;5.60;99.90
16273;DHT22;8244;50.044;9.006;2024-01-06T23:44:55;5.60;99.90
16273;DHT22;8244;50.044;9.006;2024-01-06T23:49:58;5.60;99.90
16273;DHT22;8244;50.044;9.006;2024-01-06T23:55:00;5.60;99.90
